createdAt,value
2019-04-10T00:01:51.406Z,11.37
2019-04-10T00:04:23.051Z,11.37
2019-04-10T00:06:54.233Z,11.36
2019-04-10T00:09:27.566Z,11.36
2019-04-10T00:11:58.993Z,11.32
2019-04-10T00:14:29.601Z,11.35
2019-04-10T00:17:00.528Z,11.35
2019-04-10T00:19:31.154Z,11.29
2019-04-10T00:22:02.743Z,11.30
2019-04-10T00:24:33.402Z,11.30
2019-04-10T00:27:04.119Z,11.29
2019-04-10T00:29:34.729Z,11.26
2019-04-10T00:32:05.734Z,11.22
2019-04-10T00:34:36.319Z,11.21
2019-04-10T00:37:19.063Z,11.13
2019-04-10T00:39:39.173Z,11.07
2019-04-10T00:42:10.502Z,11.02
2019-04-10T00:44:46.115Z,11.01
2019-04-10T00:47:17.032Z,10.94
2019-04-10T00:49:48.214Z,10.94
2019-04-10T00:52:19.748Z,10.91
2019-04-10T00:54:51.038Z,10.88
2019-04-10T00:57:21.696Z,10.86
2019-04-10T00:59:52.588Z,10.88
2019-04-10T01:02:24.837Z,10.83
2019-04-10T01:04:55.427Z,10.84
2019-04-10T01:07:34.165Z,10.81
2019-04-10T01:09:58.328Z,10.84
2019-04-10T01:12:29.880Z,10.84
2019-04-10T01:15:00.681Z,10.80
2019-04-10T01:17:31.277Z,10.76
2019-04-10T01:20:01.871Z,10.74
2019-04-10T01:22:32.945Z,10.74
2019-04-10T01:25:03.558Z,10.72
2019-04-10T01:27:34.152Z,10.74
2019-04-10T01:30:05.002Z,10.75
2019-04-10T01:32:36.380Z,10.70
2019-04-10T01:35:07.855Z,10.66
2019-04-10T01:37:48.637Z,10.68
2019-04-10T01:40:11.120Z,10.70
2019-04-10T01:42:41.712Z,10.66
2019-04-10T01:45:13.260Z,10.68
2019-04-10T01:47:43.839Z,10.68
2019-04-10T01:50:14.568Z,10.68
2019-04-10T01:52:45.100Z,10.68
2019-04-10T01:55:23.874Z,10.70
2019-04-10T01:57:48.477Z,10.68
2019-04-10T02:00:21.531Z,10.66
2019-04-10T02:02:53.916Z,10.67
2019-04-10T02:05:24.865Z,10.62
2019-04-10T02:08:05.301Z,10.60
2019-04-10T02:10:27.975Z,10.60
2019-04-10T02:12:59.046Z,10.56
2019-04-10T02:15:30.107Z,10.43
2019-04-10T02:18:03.241Z,10.40
2019-04-10T02:20:34.709Z,10.43
2019-04-10T02:23:05.864Z,10.38
2019-04-10T02:25:36.952Z,10.37
2019-04-10T02:28:07.552Z,10.40
2019-04-10T02:30:39.633Z,10.44
2019-04-10T02:33:10.803Z,10.40
2019-04-10T02:35:41.441Z,10.38
2019-04-10T02:38:32.613Z,10.41
2019-04-10T02:40:45.593Z,10.34
2019-04-10T02:43:16.389Z,10.30
2019-04-10T02:45:47.090Z,10.28
2019-04-10T02:48:19.895Z,10.18
2019-04-10T02:50:51.340Z,10.10
2019-04-10T02:53:23.263Z,10.03
2019-04-10T02:55:55.646Z,10.06
2019-04-10T02:58:26.555Z,10.11
2019-04-10T03:00:58.955Z,10.11
2019-04-10T03:03:30.011Z,10.09
2019-04-10T03:06:00.702Z,10.10
2019-04-10T03:08:50.481Z,10.14
2019-04-10T03:11:06.303Z,10.18
2019-04-10T03:13:36.014Z,10.19
2019-04-10T03:16:07.494Z,10.16
2019-04-10T03:18:39.111Z,10.19
2019-04-10T03:21:11.003Z,10.20
2019-04-10T03:23:42.108Z,10.18
2019-04-10T03:26:13.098Z,10.18
2019-04-10T03:28:43.782Z,10.17
2019-04-10T03:31:15.715Z,10.18
2019-04-10T03:33:55.953Z,10.15
2019-04-10T03:36:29.501Z,10.14
2019-04-10T03:39:03.607Z,10.11
2019-04-10T03:41:33.191Z,10.13
2019-04-10T03:44:06.067Z,10.13
2019-04-10T03:46:38.698Z,10.15
2019-04-10T03:49:09.623Z,10.15
2019-04-10T03:51:40.835Z,10.16
2019-04-10T03:54:11.423Z,10.15
2019-04-10T03:56:42.320Z,10.14
2019-04-10T03:59:13.755Z,10.13
2019-04-10T04:01:44.334Z,10.12
2019-04-10T04:04:15.479Z,10.09
2019-04-10T04:06:46.147Z,10.08
2019-04-10T04:09:17.629Z,10.07
2019-04-10T04:11:48.289Z,10.03
2019-04-10T04:14:22.110Z,10.07
2019-04-10T04:16:52.711Z,10.06
2019-04-10T04:19:24.081Z,10.04
2019-04-10T04:21:55.094Z,10.04
2019-04-10T04:24:26.625Z,10.06
2019-04-10T04:26:57.477Z,10.03
2019-04-10T04:29:27.981Z,10.02
2019-04-10T04:31:59.131Z,9.97
2019-04-10T04:34:31.305Z,9.92
2019-04-10T04:37:02.459Z,9.95
2019-04-10T04:39:33.072Z,9.93
2019-04-10T04:42:03.635Z,9.94
2019-04-10T04:44:34.234Z,9.91
2019-04-10T04:47:06.198Z,9.92
2019-04-10T04:49:37.754Z,9.95
2019-04-10T04:52:11.396Z,9.95
2019-04-10T04:54:46.148Z,9.94
2019-04-10T04:57:17.084Z,9.94
2019-04-10T04:59:48.748Z,9.95
2019-04-10T05:02:19.924Z,9.95
2019-04-10T05:04:51.459Z,9.92
2019-04-10T05:07:22.493Z,9.91
2019-04-10T05:09:53.142Z,9.92
2019-04-10T05:12:23.754Z,9.90
2019-04-10T05:14:54.333Z,9.91
2019-04-10T05:17:28.737Z,9.89
2019-04-10T05:19:59.343Z,9.90
2019-04-10T05:22:29.975Z,9.89
2019-04-10T05:25:00.702Z,9.87
2019-04-10T05:27:31.295Z,9.87
2019-04-10T05:30:02.438Z,9.85
2019-04-10T05:32:33.074Z,9.85
2019-04-10T05:35:05.805Z,9.85
2019-04-10T05:37:35.977Z,9.84
2019-04-10T05:40:07.712Z,9.79
2019-04-10T05:42:39.414Z,9.79
2019-04-10T05:45:10.099Z,9.81
2019-04-10T05:47:40.731Z,9.84
2019-04-10T05:50:11.475Z,9.84
2019-04-10T05:52:43.048Z,9.80
2019-04-10T05:55:13.971Z,9.80
2019-04-10T05:57:45.583Z,9.80
2019-04-10T06:00:18.863Z,9.81
2019-04-10T06:02:50.307Z,9.78
2019-04-10T06:05:20.879Z,9.79
2019-04-10T06:07:54.156Z,9.73
2019-04-10T06:10:24.766Z,9.74
2019-04-10T06:12:55.443Z,9.73
2019-04-10T06:15:26.593Z,9.72
2019-04-10T06:17:58.763Z,9.70
2019-04-10T06:20:29.341Z,9.72
2019-04-10T06:23:01.174Z,9.69
2019-04-10T06:25:34.127Z,9.64
2019-04-10T06:28:05.204Z,9.60
2019-04-10T06:30:36.312Z,9.63
2019-04-10T06:33:07.532Z,9.64
2019-04-10T06:35:38.172Z,9.60
2019-04-10T06:38:08.844Z,9.59
2019-04-10T06:40:39.444Z,9.56
2019-04-10T06:43:11.453Z,9.55
2019-04-10T06:45:42.033Z,9.55
2019-04-10T06:48:13.047Z,9.47
2019-04-10T06:50:44.794Z,9.46
2019-04-10T06:53:17.578Z,9.45
2019-04-10T06:55:48.895Z,9.41
2019-04-10T06:58:20.114Z,9.41
2019-04-10T07:00:53.058Z,9.38
2019-04-10T07:03:23.205Z,9.35
2019-04-10T07:06:06.274Z,9.29
2019-04-10T07:08:27.519Z,9.29
2019-04-10T07:11:04.738Z,9.35
2019-04-10T07:13:30.621Z,9.35
2019-04-10T07:16:02.100Z,9.40
2019-04-10T07:18:35.767Z,9.38
2019-04-10T07:21:06.318Z,9.37
2019-04-10T07:23:38.705Z,9.33
2019-04-10T07:26:10.152Z,9.23
2019-04-10T07:28:43.917Z,9.23
2019-04-10T07:31:13.567Z,9.28
2019-04-10T07:33:47.148Z,9.30
2019-04-10T07:36:16.409Z,9.29
2019-04-10T07:38:47.019Z,9.27
2019-04-10T07:41:23.091Z,9.22
2019-04-10T07:43:55.151Z,9.14
2019-04-10T07:46:26.209Z,9.17
2019-04-10T07:48:57.177Z,9.19
2019-04-10T07:51:29.734Z,9.24
2019-04-10T07:54:00.489Z,9.19
2019-04-10T07:56:31.256Z,9.19
2019-04-10T07:59:02.686Z,9.20
2019-04-10T08:01:33.493Z,9.21
2019-04-10T08:04:04.243Z,9.28
2019-04-10T08:06:35.290Z,9.21
2019-04-10T08:09:08.606Z,9.23
2019-04-10T08:11:40.110Z,9.23
2019-04-10T08:14:12.716Z,9.26
2019-04-10T08:16:43.421Z,9.30
2019-04-10T08:19:14.605Z,9.31
2019-04-10T08:21:46.390Z,9.15
2019-04-10T08:24:18.118Z,9.23
2019-04-10T08:26:49.280Z,9.27
2019-04-10T08:29:19.885Z,9.29
2019-04-10T08:31:50.462Z,9.29
2019-04-10T08:34:21.627Z,9.28
2019-04-10T08:36:53.844Z,9.29
2019-04-10T08:39:38.759Z,9.34
2019-04-10T08:41:57.881Z,9.37
2019-04-10T08:44:29.749Z,9.35
2019-04-10T08:47:00.404Z,9.43
2019-04-10T08:49:31.031Z,9.46
2019-04-10T08:52:01.668Z,9.47
2019-04-10T08:54:32.421Z,9.60
2019-04-10T08:57:05.370Z,9.64
2019-04-10T08:59:36.906Z,9.64
2019-04-10T09:02:08.080Z,9.66
2019-04-10T09:04:39.230Z,9.61
2019-04-10T09:07:10.041Z,9.63
2019-04-10T09:09:41.527Z,9.60
2019-04-10T09:12:12.343Z,9.58
2019-04-10T09:14:43.411Z,9.64
2019-04-10T09:17:15.386Z,9.64
2019-04-10T09:19:46.411Z,9.61
2019-04-10T09:22:16.903Z,9.54
2019-04-10T09:24:48.783Z,9.56
2019-04-10T09:27:19.436Z,9.56
2019-04-10T09:29:50.028Z,9.52
2019-04-10T09:32:20.590Z,9.51
2019-04-10T09:34:52.076Z,9.50
2019-04-10T09:37:22.688Z,9.54
2019-04-10T09:39:54.702Z,9.52
2019-04-10T09:42:25.676Z,9.55
2019-04-10T09:44:57.710Z,9.60
2019-04-10T09:47:28.284Z,9.73
2019-04-10T09:50:03.475Z,9.83
2019-04-10T09:52:38.392Z,9.82
2019-04-10T09:55:13.757Z,9.93
2019-04-10T09:57:45.910Z,9.99
2019-04-10T10:00:16.914Z,9.99
2019-04-10T10:02:50.721Z,10.01
2019-04-10T10:05:26.550Z,10.12
2019-04-10T10:08:02.267Z,10.20
2019-04-10T10:10:36.497Z,10.23
2019-04-10T10:13:05.423Z,10.29
2019-04-10T10:15:36.055Z,10.30
2019-04-10T10:18:06.608Z,10.28
2019-04-10T10:20:37.725Z,10.38
2019-04-10T10:23:08.329Z,10.42
2019-04-10T10:25:39.432Z,10.41
2019-04-10T10:28:11.691Z,10.45
2019-04-10T10:30:42.406Z,10.55
2019-04-10T10:33:13.241Z,10.59
2019-04-10T10:35:45.289Z,10.60
2019-04-10T10:38:19.031Z,10.55
2019-04-10T10:40:50.805Z,10.67
2019-04-10T10:43:22.535Z,10.72
2019-04-10T10:45:53.456Z,10.75
2019-04-10T10:48:24.048Z,10.78
2019-04-10T10:50:54.677Z,10.87
2019-04-10T10:53:25.221Z,10.80
2019-04-10T10:55:56.100Z,10.73
2019-04-10T10:58:27.903Z,10.72
2019-04-10T11:01:01.669Z,10.66
2019-04-10T11:03:32.280Z,10.67
2019-04-10T11:06:03.031Z,10.68
2019-04-10T11:08:35.508Z,10.68
2019-04-10T11:11:06.502Z,10.72
2019-04-10T11:13:37.219Z,10.77
2019-04-10T11:16:09.112Z,10.80
2019-04-10T11:18:40.371Z,10.85
2019-04-10T11:21:12.337Z,10.88
2019-04-10T11:23:43.919Z,10.84
2019-04-10T11:26:19.980Z,10.76
2019-04-10T11:28:49.596Z,10.76
2019-04-10T11:31:19.224Z,10.81
2019-04-10T11:33:53.010Z,10.82
2019-04-10T11:36:22.179Z,10.87
2019-04-10T11:38:55.395Z,10.92
2019-04-10T11:41:30.820Z,10.82
2019-04-10T11:44:00.559Z,10.74
2019-04-10T11:46:32.241Z,10.75
2019-04-10T11:49:04.943Z,10.84
2019-04-10T11:51:36.723Z,10.89
2019-04-10T11:54:12.437Z,10.95
2019-04-10T11:56:40.377Z,10.94
2019-04-10T11:59:12.374Z,11.00
2019-04-10T12:01:46.224Z,11.04
2019-04-10T12:04:19.195Z,11.07
2019-04-10T12:06:52.291Z,11.10
2019-04-10T12:10:16.996Z,11.14
2019-04-10T12:11:53.107Z,11.11
2019-04-10T12:14:23.786Z,11.22
2019-04-10T12:16:55.720Z,11.13
2019-04-10T12:19:26.959Z,11.13
2019-04-10T12:21:58.023Z,11.04
2019-04-10T12:24:28.599Z,11.04
2019-04-10T12:27:00.335Z,11.05
2019-04-10T12:29:31.055Z,11.08
2019-04-10T12:32:01.762Z,11.04
2019-04-10T12:34:36.157Z,11.04
2019-04-10T12:37:06.981Z,11.08
2019-04-10T12:39:37.630Z,11.06
2019-04-10T12:42:08.211Z,11.04
2019-04-10T12:44:39.990Z,11.08
2019-04-10T12:47:11.240Z,11.13
2019-04-10T12:49:41.790Z,11.18
2019-04-10T12:52:14.363Z,11.19
2019-04-10T12:54:44.997Z,11.26
2019-04-10T12:57:16.784Z,11.37
2019-04-10T12:59:47.824Z,11.43
2019-04-10T13:02:18.497Z,11.46
2019-04-10T13:04:49.092Z,11.54
2019-04-10T13:07:19.659Z,11.56
2019-04-10T13:09:50.492Z,11.66
2019-04-10T13:12:21.171Z,11.72
2019-04-10T13:14:53.070Z,11.80
2019-04-10T13:17:24.755Z,11.85
2019-04-10T13:19:55.607Z,11.88
2019-04-10T13:22:26.523Z,11.98
2019-04-10T13:24:57.726Z,12.06
2019-04-10T13:27:28.627Z,12.11
2019-04-10T13:29:59.203Z,12.19
2019-04-10T13:32:29.869Z,12.22
2019-04-10T13:35:00.461Z,12.20
2019-04-10T13:37:31.686Z,12.23
2019-04-10T13:40:03.457Z,12.25
2019-04-10T13:42:34.208Z,12.30
2019-04-10T13:45:07.471Z,12.31
2019-04-10T13:47:38.674Z,12.28
2019-04-10T13:50:10.658Z,12.30
2019-04-10T13:52:44.602Z,12.33
2019-04-10T13:55:15.579Z,12.34
2019-04-10T13:57:46.631Z,12.37
2019-04-10T14:00:33.532Z,12.41
2019-04-10T14:03:04.235Z,12.39
2019-04-10T14:05:35.396Z,12.39
2019-04-10T14:08:08.415Z,12.43
2019-04-10T14:10:41.232Z,12.42
2019-04-10T14:13:11.706Z,12.42
2019-04-10T14:15:42.290Z,12.40
2019-04-10T14:18:14.340Z,12.44
2019-04-10T14:20:47.894Z,12.47
2019-04-10T14:23:28.647Z,12.46
2019-04-10T14:26:45.879Z,12.48
2019-04-10T14:29:12.606Z,12.49
2019-04-10T14:31:49.037Z,12.46
2019-04-10T14:34:22.741Z,12.41
2019-04-10T14:36:54.520Z,12.41
2019-04-10T14:39:27.233Z,12.41
2019-04-10T14:41:58.073Z,12.36
2019-04-10T14:44:28.676Z,12.39
2019-04-10T14:47:00.225Z,12.38
2019-04-10T14:49:31.327Z,12.40
2019-04-10T14:52:05.146Z,12.42
2019-04-10T14:54:35.967Z,12.40
2019-04-10T14:57:06.799Z,12.42
2019-04-10T14:59:37.380Z,12.46
2019-04-10T15:02:10.699Z,12.48
2019-04-10T15:04:41.555Z,12.49
2019-04-10T15:07:12.347Z,12.48
2019-04-10T15:09:44.193Z,12.51
2019-04-10T15:12:14.856Z,12.50
2019-04-10T15:14:45.868Z,12.52
2019-04-10T15:17:17.455Z,12.53
2019-04-10T15:19:50.603Z,12.56
2019-04-10T15:22:20.474Z,12.59
2019-04-10T15:24:52.139Z,12.58
2019-04-10T15:27:22.733Z,12.61
2019-04-10T15:29:54.651Z,12.63
2019-04-10T15:32:25.363Z,12.65
2019-04-10T15:34:55.958Z,12.68
2019-04-10T15:37:26.578Z,12.69
2019-04-10T15:40:10.032Z,12.73
2019-04-10T15:42:32.162Z,12.72
2019-04-10T15:45:03.142Z,12.70
2019-04-10T15:47:33.649Z,12.70
2019-04-10T15:50:04.780Z,12.72
2019-04-10T15:52:35.471Z,12.73
2019-04-10T15:55:07.787Z,12.71
2019-04-10T15:57:47.685Z,12.74
2019-04-10T16:00:12.758Z,12.78
2019-04-10T16:02:43.410Z,12.78
2019-04-10T16:05:15.371Z,12.81
2019-04-10T16:07:46.905Z,12.83
2019-04-10T16:10:51.716Z,12.88
2019-04-10T16:13:40.851Z,12.94
2019-04-10T16:16:48.885Z,13.00
2019-04-10T16:19:39.288Z,13.06
2019-04-10T16:22:19.206Z,13.14
2019-04-10T16:24:49.980Z,13.14
2019-04-10T16:27:22.161Z,13.17
2019-04-10T16:29:53.109Z,13.19
2019-04-10T16:32:26.565Z,13.17
2019-04-10T16:34:58.824Z,13.20
2019-04-10T16:37:29.747Z,13.21
2019-04-10T16:40:04.426Z,13.18
2019-04-10T16:42:34.906Z,13.17
2019-04-10T16:45:05.988Z,13.20
2019-04-10T16:47:36.590Z,13.18
2019-04-10T16:50:09.161Z,13.16
2019-04-10T16:52:40.940Z,13.14
2019-04-10T16:55:11.717Z,13.04
2019-04-10T16:57:45.348Z,13.01
2019-04-10T17:00:17.200Z,12.95
2019-04-10T17:02:48.889Z,12.90
2019-04-10T17:05:20.573Z,12.86
2019-04-10T17:07:51.674Z,12.81
2019-04-10T17:10:24.872Z,12.75
2019-04-10T17:12:55.186Z,12.73
2019-04-10T17:15:26.106Z,12.68
2019-04-10T17:17:56.950Z,12.59
2019-04-10T17:20:28.805Z,12.54
2019-04-10T17:23:00.411Z,12.45
2019-04-10T17:25:31.099Z,12.41
2019-04-10T17:28:04.871Z,12.38
2019-04-10T17:30:37.893Z,12.39
2019-04-10T17:33:09.563Z,12.32
2019-04-10T17:35:43.457Z,12.27
2019-04-10T17:38:14.292Z,12.30
2019-04-10T17:40:50.617Z,12.31
2019-04-10T17:43:17.281Z,12.33
2019-04-10T17:45:48.949Z,12.33
2019-04-10T17:48:19.936Z,12.32
2019-04-10T17:50:50.609Z,12.25
2019-04-10T17:53:21.289Z,12.16
2019-04-10T17:55:51.882Z,12.08
2019-04-10T17:58:22.469Z,11.99
2019-04-10T18:00:55.789Z,11.92
2019-04-10T18:03:40.503Z,11.84
2019-04-10T18:05:59.308Z,11.74
2019-04-10T18:08:30.176Z,11.68
2019-04-10T18:11:00.954Z,11.61
2019-04-10T18:13:31.625Z,11.53
2019-04-10T18:16:05.198Z,11.47
2019-04-10T18:18:37.976Z,11.43
2019-04-10T18:21:08.721Z,11.33
2019-04-10T18:23:39.769Z,11.27
2019-04-10T18:26:12.610Z,11.17
2019-04-10T18:28:43.567Z,11.08
2019-04-10T18:31:14.241Z,11.01
2019-04-10T18:33:44.841Z,10.93
2019-04-10T18:36:15.477Z,10.87
2019-04-10T18:38:46.019Z,10.72
2019-04-10T18:41:17.914Z,10.70
2019-04-10T18:43:48.690Z,10.59
2019-04-10T18:46:20.853Z,10.42
2019-04-10T18:48:51.698Z,10.43
2019-04-10T18:51:22.278Z,10.36
2019-04-10T18:53:53.377Z,10.30
2019-04-10T18:56:25.064Z,10.26
2019-04-10T18:59:10.259Z,10.21
2019-04-10T19:01:59.849Z,10.07
2019-04-10T19:04:39.135Z,9.99
2019-04-10T19:07:11.125Z,9.92
2019-04-10T19:09:43.601Z,9.82
2019-04-10T19:12:14.668Z,9.79
2019-04-10T19:14:46.707Z,9.70
2019-04-10T19:17:17.535Z,9.66
2019-04-10T19:19:48.563Z,9.54
2019-04-10T19:22:20.310Z,9.45
2019-04-10T19:24:52.161Z,9.39
2019-04-10T19:27:22.869Z,9.34
2019-04-10T19:29:53.515Z,9.28
2019-04-10T19:32:35.261Z,9.20
2019-04-10T19:35:07.609Z,9.14
2019-04-10T19:37:38.815Z,9.02
2019-04-10T19:40:11.195Z,8.95
2019-04-10T19:42:41.878Z,8.84
2019-04-10T19:45:12.554Z,8.64
2019-04-10T19:47:44.307Z,8.50
2019-04-10T19:50:15.187Z,8.43
2019-04-10T19:52:46.765Z,8.47
2019-04-10T19:55:17.699Z,8.52
2019-04-10T19:57:48.387Z,8.46
2019-04-10T20:00:22.082Z,8.26
2019-04-10T20:02:52.819Z,8.11
2019-04-10T20:05:25.325Z,8.17
2019-04-10T20:07:55.978Z,8.17
2019-04-10T20:10:27.557Z,8.20
2019-04-10T20:12:59.253Z,8.11
2019-04-10T20:15:30.754Z,8.15
2019-04-10T20:18:02.241Z,8.15
2019-04-10T20:20:32.933Z,8.08
2019-04-10T20:23:04.747Z,8.10
2019-04-10T20:25:35.241Z,8.07
2019-04-10T20:28:10.632Z,8.04
2019-04-10T20:30:42.437Z,8.01
2019-04-10T20:33:13.090Z,7.98
2019-04-10T20:35:44.665Z,7.92
2019-04-10T20:38:15.563Z,7.87
2019-04-10T20:40:46.431Z,7.85
2019-04-10T20:43:17.028Z,7.79
2019-04-10T20:45:47.758Z,7.74
2019-04-10T20:48:18.400Z,7.69
2019-04-10T20:50:50.198Z,7.57
2019-04-10T20:53:22.025Z,7.60
2019-04-10T20:55:54.540Z,7.53
2019-04-10T20:58:25.393Z,7.47
2019-04-10T21:00:58.701Z,7.38
2019-04-10T21:03:29.682Z,7.35
2019-04-10T21:06:00.503Z,7.35
2019-04-10T21:08:31.080Z,7.34
2019-04-10T21:11:03.783Z,7.20
2019-04-10T21:13:35.547Z,7.13
2019-04-10T21:16:07.109Z,7.10
2019-04-10T21:18:37.811Z,7.05
2019-04-10T21:21:10.203Z,7.05
2019-04-10T21:23:41.898Z,6.99
2019-04-10T21:26:14.392Z,6.97
2019-04-10T21:28:45.764Z,6.83
2019-04-10T21:31:34.243Z,6.82
2019-04-10T21:34:30.447Z,6.84
2019-04-10T21:37:03.799Z,6.74
2019-04-10T21:39:34.419Z,6.70
2019-04-10T21:42:14.838Z,6.62
2019-04-10T21:44:37.356Z,6.59
2019-04-10T21:47:08.827Z,6.56
2019-04-10T21:49:40.026Z,6.55
2019-04-10T21:52:10.673Z,6.55
2019-04-10T21:54:51.106Z,6.50
2019-04-10T21:57:18.077Z,6.47
2019-04-10T21:59:49.648Z,6.47
2019-04-10T22:02:21.537Z,6.47
2019-04-10T22:04:52.294Z,6.43
2019-04-10T22:07:43.131Z,6.42
2019-04-10T22:10:30.095Z,6.37
2019-04-10T22:13:01.593Z,6.37
2019-04-10T22:15:39.448Z,6.35
2019-04-10T22:18:12.906Z,6.29
2019-04-10T22:20:43.741Z,6.28
2019-04-10T22:23:14.411Z,6.25
2019-04-10T22:25:45.887Z,6.15
2019-04-10T22:28:17.016Z,6.14
2019-04-10T22:30:48.439Z,6.10
2019-04-10T22:33:20.169Z,6.11
2019-04-10T22:35:50.843Z,6.11
2019-04-10T22:38:21.561Z,6.11
2019-04-10T22:40:52.202Z,6.03
2019-04-10T22:43:22.771Z,5.96
2019-04-10T22:45:53.384Z,5.85
2019-04-10T22:48:26.765Z,5.87
2019-04-10T22:50:57.461Z,5.75
2019-04-10T22:53:28.927Z,5.74
2019-04-10T22:56:00.444Z,5.73
2019-04-10T22:58:31.012Z,5.71
2019-04-10T23:01:02.554Z,5.77
2019-04-10T23:03:33.423Z,5.71
2019-04-10T23:06:04.912Z,5.58
2019-04-10T23:08:35.789Z,5.61
2019-04-10T23:11:09.988Z,5.52
2019-04-10T23:13:40.597Z,5.49
2019-04-10T23:16:14.154Z,5.53
2019-04-10T23:18:47.783Z,5.52
2019-04-10T23:21:22.809Z,5.55
2019-04-10T23:23:53.543Z,5.56
2019-04-10T23:26:24.982Z,5.58
2019-04-10T23:28:55.934Z,5.55
2019-04-10T23:31:27.784Z,5.58
2019-04-10T23:33:58.703Z,5.57
2019-04-10T23:36:29.898Z,5.54
2019-04-10T23:39:00.656Z,5.42
2019-04-10T23:41:31.736Z,5.31
2019-04-10T23:44:02.293Z,5.20
2019-04-10T23:46:32.909Z,5.23
2019-04-10T23:49:03.982Z,5.22
2019-04-10T23:51:34.881Z,5.18
2019-04-10T23:54:05.446Z,5.15
2019-04-10T23:56:37.859Z,5.12
2019-04-10T23:59:08.721Z,5.11
